SCVD/ZAL METAR and TAF weather

Enter ICAO airport designator
Station Type Date Time Source
SCVD METAR 2020/01/29 13:00 UTC NOAA

SCVD 291300Z 18008KT CAVOK 15/07 Q1021


Station Type Date Time Source
SCVD Decoded METAR 2020/01/29 13:00 UTC NOAA

Valdivia, Chile (SCVD) 39-37S 073-05W
Jan 29, 2020 - 08:00 AM EST / 2020.01.29 1300 UTC
Wind: from the S (180 degrees) at 9 MPH (8 KT):0
Visibility: greater than 7 mile(s):0
Temperature: 59 F (15 C)
Dew Point: 44 F (7 C)
Relative Humidity: 58%
Pressure (altimeter): 30.15 in. Hg (1021 hPa)
ob: SCVD 291300Z 18008KT CAVOK 15/07 Q1021
cycle: 13

Station Type Date Time Source
SCVD TAF 2020/01/29 12:00 UTC NOAA

TAF SCVD 291023Z 2912/2924 18004KT CAVOK TN08/2912Z TX22/2919Z
BECMG 2913/2915 15010KT CAVOK
BECMG 2922/2924 16005KT

Example: see airport list